createdAt,value
2019-03-25T00:01:51.869Z,10.80
2019-03-25T00:04:22.092Z,10.95
2019-03-25T00:06:52.340Z,9.48
2019-03-25T00:09:22.546Z,10.98
2019-03-25T00:11:52.852Z,11.55
2019-03-25T00:14:23.274Z,9.85
2019-03-25T00:16:53.324Z,9.90
2019-03-25T00:19:23.551Z,9.58
2019-03-25T00:21:53.774Z,11.28
2019-03-25T00:24:24.068Z,10.30
2019-03-25T00:26:54.291Z,10.88
2019-03-25T00:29:24.445Z,10.75
2019-03-25T00:31:54.666Z,10.75
2019-03-25T00:34:24.872Z,10.80
2019-03-25T00:36:55.192Z,9.93
2019-03-25T00:39:25.512Z,11.15
2019-03-25T00:41:55.665Z,10.40
2019-03-25T00:44:25.761Z,9.63
2019-03-25T00:46:56.001Z,11.85
2019-03-25T00:49:26.300Z,10.03
2019-03-25T00:51:56.528Z,10.13
2019-03-25T00:54:26.774Z,10.13
2019-03-25T00:56:56.999Z,9.33
2019-03-25T00:59:27.205Z,10.32
2019-03-25T01:01:57.519Z,11.60
2019-03-25T01:04:27.843Z,12.95
2019-03-25T01:06:58.063Z,11.20
2019-03-25T01:09:28.213Z,11.65
2019-03-25T01:11:58.427Z,8.68
2019-03-25T01:14:28.658Z,10.10
2019-03-25T01:16:58.960Z,10.78
2019-03-25T01:19:29.180Z,11.40
2019-03-25T01:21:59.311Z,9.75
2019-03-25T01:38:05.773Z,11.00
2019-03-25T01:40:36.065Z,9.85
2019-03-25T01:43:06.301Z,9.65
2019-03-25T01:45:36.538Z,9.75
2019-03-25T01:48:06.764Z,9.70
2019-03-25T02:19:39.348Z,8.15
2019-03-25T02:22:09.646Z,11.05
2019-03-25T02:24:39.870Z,9.90
2019-03-25T02:27:10.114Z,10.85
2019-03-25T02:29:40.356Z,8.18
2019-03-25T02:32:10.565Z,9.73
2019-03-25T02:34:40.874Z,10.63
2019-03-25T02:37:11.086Z,9.78
2019-03-25T02:52:12.502Z,8.53
2019-03-25T02:54:42.720Z,9.90
2019-03-25T02:57:13.018Z,11.48
2019-03-25T02:59:43.250Z,9.48
2019-03-25T03:02:13.387Z,9.53
2019-03-25T03:04:43.640Z,11.15
2019-03-25T03:07:13.809Z,11.03
2019-03-25T03:09:44.036Z,9.63
2019-03-25T03:12:14.359Z,10.30
2019-03-25T03:14:44.669Z,10.13
2019-03-25T03:17:14.830Z,9.40
2019-03-25T03:19:45.063Z,10.20
2019-03-25T03:22:15.353Z,8.48
2019-03-25T03:24:45.647Z,9.35
2019-03-25T03:27:15.778Z,10.13
2019-03-25T03:29:45.960Z,8.08
2019-03-25T03:32:17.701Z,9.60
2019-03-25T03:34:48.001Z,8.48
2019-03-25T03:37:18.234Z,9.38
2019-03-25T03:39:48.506Z,11.48
2019-03-25T03:42:18.714Z,10.20
2019-03-25T03:44:48.922Z,9.05
2019-03-25T03:47:19.335Z,8.08
2019-03-25T03:49:49.549Z,8.98
2019-03-25T03:52:19.697Z,9.38
2019-03-25T03:54:49.910Z,8.98
2019-03-25T03:57:20.144Z,13.10
2019-03-25T03:59:50.470Z,11.95
2019-03-25T04:02:20.774Z,8.13
2019-03-25T04:04:51.088Z,11.03
2019-03-25T04:07:21.247Z,12.07
2019-03-25T04:09:51.453Z,9.90
2019-03-25T04:12:21.685Z,8.73
2019-03-25T04:14:51.983Z,12.98
2019-03-25T04:17:22.208Z,9.80
2019-03-25T04:19:52.443Z,10.00
2019-03-25T04:22:22.684Z,10.10
2019-03-25T04:24:52.915Z,10.30
2019-03-25T04:27:24.108Z,11.25
2019-03-25T04:29:54.262Z,10.28
2019-03-25T04:32:24.601Z,11.30
2019-03-25T04:34:54.825Z,11.75
2019-03-25T04:37:25.109Z,11.03
2019-03-25T04:39:55.344Z,13.25
2019-03-25T04:42:25.583Z,10.08
2019-03-25T04:44:55.810Z,9.43
2019-03-25T04:47:26.034Z,11.22
2019-03-25T04:49:56.330Z,9.65
2019-03-25T04:52:26.654Z,8.90
2019-03-25T04:54:56.801Z,9.60
2019-03-25T04:57:27.020Z,9.70
2019-03-25T04:59:57.258Z,10.65
2019-03-25T05:02:27.859Z,10.90
2019-03-25T05:04:58.117Z,11.10
2019-03-25T05:07:28.399Z,8.95
2019-03-25T05:09:58.632Z,9.70
2019-03-25T05:12:30.371Z,8.50
2019-03-25T05:14:59.105Z,9.50
2019-03-25T05:17:29.321Z,10.25
2019-03-25T05:19:59.624Z,10.50
2019-03-25T05:22:29.580Z,11.18
2019-03-25T05:24:59.784Z,9.45
2019-03-25T05:27:29.981Z,9.28
2019-03-25T05:30:00.440Z,9.00
2019-03-25T05:32:30.627Z,11.30
2019-03-25T05:35:00.774Z,12.25
2019-03-25T05:37:31.007Z,12.18
2019-03-25T05:40:01.220Z,10.53
2019-03-25T05:42:31.517Z,14.00
2019-03-25T05:45:01.880Z,11.45
2019-03-25T05:47:32.173Z,12.60
2019-03-25T05:50:02.429Z,14.53
2019-03-25T05:52:32.658Z,12.33
2019-03-25T05:55:02.863Z,13.35
2019-03-25T05:57:33.200Z,14.53
2019-03-25T06:00:03.471Z,16.50
2019-03-25T06:02:33.620Z,15.13
2019-03-25T06:05:03.859Z,15.00
2019-03-25T06:07:34.079Z,14.80
2019-03-25T06:10:04.416Z,15.40
2019-03-25T06:12:34.583Z,14.47
2019-03-25T06:15:04.951Z,17.75
2019-03-25T06:17:35.168Z,15.60
2019-03-25T06:20:05.447Z,16.82
2019-03-25T06:22:35.616Z,18.17
2019-03-25T06:25:05.971Z,14.38
2019-03-25T06:27:36.246Z,17.70
2019-03-25T06:30:07.051Z,11.97
2019-03-25T06:32:37.307Z,17.67
2019-03-25T06:35:08.903Z,18.62
2019-03-25T06:37:39.422Z,20.05
2019-03-25T06:40:09.946Z,20.37
2019-03-25T06:42:40.168Z,20.70
2019-03-25T06:45:11.109Z,17.52
2019-03-25T06:47:41.349Z,17.32
2019-03-25T06:50:11.567Z,20.48
2019-03-25T06:52:41.966Z,20.08
2019-03-25T06:55:12.198Z,23.00
2019-03-25T06:57:42.434Z,20.68
2019-03-25T07:00:13.937Z,16.37
2019-03-25T07:02:44.195Z,20.60
2019-03-25T07:05:14.410Z,15.08
2019-03-25T07:07:44.560Z,19.25
2019-03-25T07:10:16.884Z,23.83
2019-03-25T07:12:47.064Z,22.32
2019-03-25T07:15:20.317Z,18.70
2019-03-25T07:17:50.467Z,24.27
2019-03-25T07:20:20.757Z,24.67
2019-03-25T07:22:51.097Z,18.25
2019-03-25T07:25:21.333Z,25.20
2019-03-25T07:27:51.573Z,17.50
2019-03-25T07:30:21.777Z,24.20
2019-03-25T07:32:52.115Z,20.80
2019-03-25T07:35:22.584Z,21.40
2019-03-25T07:37:52.839Z,22.62
2019-03-25T07:40:23.088Z,18.02
2019-03-25T07:42:53.320Z,18.60
2019-03-25T07:45:23.612Z,25.43
2019-03-25T07:47:53.838Z,23.32
2019-03-25T07:50:24.098Z,22.30
2019-03-25T07:52:54.389Z,26.52
2019-03-25T07:55:24.651Z,23.65
2019-03-25T07:57:54.894Z,21.30
2019-03-25T08:00:25.074Z,21.90
2019-03-25T08:02:55.414Z,24.27
2019-03-25T08:05:25.697Z,23.65
2019-03-25T08:07:55.855Z,27.22
2019-03-25T08:10:36.491Z,22.35
2019-03-25T08:13:06.928Z,20.70
2019-03-25T08:15:37.241Z,24.37
2019-03-25T08:18:07.466Z,22.70
2019-03-25T08:20:37.721Z,26.33
2019-03-25T08:23:07.942Z,24.40
2019-03-25T08:25:38.167Z,24.50
2019-03-25T08:28:08.456Z,24.12
2019-03-25T08:30:38.793Z,21.07
2019-03-25T08:33:09.109Z,23.67
2019-03-25T08:35:39.254Z,28.83
2019-03-25T08:38:09.499Z,21.50
2019-03-25T08:40:39.731Z,27.82
2019-03-25T08:43:10.099Z,30.30
2019-03-25T08:45:40.437Z,30.32
2019-03-25T08:48:10.760Z,25.23
2019-03-25T08:50:41.165Z,22.90
2019-03-25T08:53:11.430Z,25.05
2019-03-25T08:55:41.654Z,21.62
2019-03-25T08:58:12.581Z,23.07
2019-03-25T09:00:42.917Z,20.25
2019-03-25T09:03:13.140Z,22.13
2019-03-25T09:05:43.436Z,19.57
2019-03-25T09:08:13.673Z,19.00
2019-03-25T09:10:43.997Z,23.40
2019-03-25T09:13:14.245Z,22.17
2019-03-25T09:15:44.457Z,25.60
2019-03-25T09:18:14.690Z,20.05
2019-03-25T09:20:44.879Z,20.32
2019-03-25T09:23:15.317Z,19.05
2019-03-25T09:25:45.634Z,19.75
2019-03-25T09:28:24.032Z,18.52
2019-03-25T09:31:20.112Z,18.95
2019-03-25T09:33:50.448Z,21.10
2019-03-25T09:36:21.300Z,24.75
2019-03-25T09:38:51.388Z,19.32
2019-03-25T09:41:21.612Z,23.10
2019-03-25T09:43:51.906Z,21.75
2019-03-25T09:46:22.230Z,25.60
2019-03-25T09:48:52.490Z,19.98
2019-03-25T09:51:22.709Z,27.22
2019-03-25T09:53:52.937Z,21.68
2019-03-25T09:56:23.267Z,23.05
2019-03-25T09:58:53.789Z,22.85
2019-03-25T10:01:23.979Z,22.05
2019-03-25T10:03:54.413Z,21.97
2019-03-25T10:06:24.668Z,28.38
2019-03-25T10:08:54.901Z,20.88
2019-03-25T10:11:25.102Z,26.95
2019-03-25T10:13:55.410Z,32.03
2019-03-25T10:16:25.729Z,26.33
2019-03-25T10:18:56.058Z,23.02
2019-03-25T10:21:26.307Z,26.10
2019-03-25T10:23:56.543Z,26.65
2019-03-25T10:26:26.848Z,28.05
2019-03-25T10:28:57.185Z,24.07
2019-03-25T10:31:27.518Z,24.70
2019-03-25T10:33:57.805Z,28.98
2019-03-25T10:36:28.119Z,26.62
2019-03-25T10:38:58.518Z,27.15
2019-03-25T10:41:28.700Z,35.52
2019-03-25T10:43:58.932Z,44.67
2019-03-25T10:46:29.225Z,35.58
2019-03-25T10:48:59.542Z,40.65
2019-03-25T10:51:29.777Z,40.25
2019-03-25T10:54:00.118Z,61.83
2019-03-25T10:56:30.362Z,71.10
2019-03-25T10:59:00.461Z,64.15
2019-03-25T11:01:30.768Z,63.90
2019-03-25T11:04:01.100Z,63.70
2019-03-25T11:06:31.524Z,64.07
2019-03-25T11:09:01.677Z,63.65
2019-03-25T11:11:31.897Z,63.98
2019-03-25T11:14:02.109Z,62.17
2019-03-25T11:16:32.413Z,68.92
2019-03-25T11:19:02.728Z,69.37
2019-03-25T11:21:32.888Z,71.40
2019-03-25T11:24:03.100Z,65.17
2019-03-25T11:26:33.336Z,61.35
2019-03-25T11:29:08.304Z,64.72
2019-03-25T11:31:35.599Z,66.35
2019-03-25T11:34:06.016Z,58.80
2019-03-25T11:36:36.264Z,58.85
2019-03-25T11:39:07.945Z,57.53
2019-03-25T11:41:38.157Z,56.40
2019-03-25T11:44:08.445Z,53.33
2019-03-25T11:46:38.825Z,55.60
2019-03-25T11:49:09.092Z,55.75
2019-03-25T11:51:39.340Z,56.83
2019-03-25T11:54:09.579Z,56.83
2019-03-25T11:56:39.866Z,53.65
2019-03-25T11:59:18.250Z,49.90
2019-03-25T12:01:42.151Z,54.95
2019-03-25T12:04:12.478Z,51.15
2019-03-25T12:06:42.734Z,55.28
2019-03-25T12:09:12.954Z,59.05
2019-03-25T12:11:43.272Z,58.98
2019-03-25T12:14:13.580Z,54.63
2019-03-25T12:16:43.896Z,55.55
2019-03-25T12:19:14.235Z,66.42
2019-03-25T12:21:44.472Z,93.12
2019-03-25T12:24:14.701Z,89.70
2019-03-25T12:26:45.034Z,88.15
2019-03-25T12:29:15.426Z,89.03
2019-03-25T12:31:45.749Z,91.28
2019-03-25T12:34:16.152Z,84.47
2019-03-25T12:36:46.502Z,77.17
2019-03-25T12:39:16.752Z,81.70
2019-03-25T12:41:46.995Z,77.37
2019-03-25T12:44:17.205Z,75.40
2019-03-25T12:46:47.511Z,76.65
2019-03-25T12:49:17.826Z,80.77
2019-03-25T12:51:48.595Z,76.80
2019-03-25T12:54:18.881Z,73.37
2019-03-25T12:56:49.248Z,73.50
2019-03-25T12:59:19.463Z,69.03
2019-03-25T13:01:53.177Z,70.45
2019-03-25T13:04:21.754Z,68.12
2019-03-25T13:06:51.983Z,74.37
2019-03-25T13:09:22.301Z,70.52
2019-03-25T13:11:52.591Z,71.47
2019-03-25T13:14:22.826Z,69.15
2019-03-25T13:16:53.188Z,69.32
2019-03-25T13:19:23.402Z,65.83
2019-03-25T13:21:53.614Z,69.35
2019-03-25T13:24:23.917Z,64.22
2019-03-25T13:26:54.238Z,69.10
2019-03-25T13:29:24.670Z,66.50
2019-03-25T13:31:54.994Z,65.00
2019-03-25T13:34:25.343Z,67.32
2019-03-25T13:36:55.564Z,62.67
2019-03-25T13:39:25.793Z,63.15
2019-03-25T13:41:56.085Z,66.02
2019-03-25T13:44:26.428Z,58.20
2019-03-25T13:46:56.732Z,64.20
2019-03-25T13:49:26.892Z,62.98
2019-03-25T13:51:57.120Z,59.90
2019-03-25T13:54:27.452Z,57.48
2019-03-25T13:56:57.732Z,64.32
2019-03-25T13:59:27.966Z,61.60
2019-03-25T14:01:58.276Z,58.17
2019-03-25T14:04:28.551Z,62.20
2019-03-25T14:06:58.750Z,55.12
2019-03-25T14:09:28.988Z,57.50
2019-03-25T14:11:59.381Z,56.25
2019-03-25T14:14:29.674Z,56.95
2019-03-25T14:16:59.926Z,55.20
2019-03-25T14:19:30.075Z,53.45
2019-03-25T14:22:00.350Z,50.08
2019-03-25T14:24:30.520Z,53.83
2019-03-25T14:27:00.853Z,53.70
2019-03-25T14:29:31.137Z,52.40
2019-03-25T14:32:01.396Z,51.98
2019-03-25T14:34:31.607Z,49.67
2019-03-25T14:37:01.842Z,48.63
2019-03-25T14:39:32.135Z,51.75
2019-03-25T14:42:02.469Z,51.50
2019-03-25T14:44:32.790Z,52.40
2019-03-25T14:47:03.038Z,52.27
2019-03-25T14:49:33.261Z,62.70
2019-03-25T14:52:03.606Z,60.08
2019-03-25T14:54:33.886Z,51.83
2019-03-25T14:57:04.220Z,48.73
2019-03-25T14:59:34.537Z,53.75
2019-03-25T15:02:04.792Z,50.23
2019-03-25T15:04:35.007Z,49.98
2019-03-25T15:07:05.338Z,47.05
2019-03-25T15:09:35.658Z,47.00
2019-03-25T15:12:05.959Z,46.10
2019-03-25T15:14:36.288Z,46.25
2019-03-25T15:17:06.725Z,43.02
2019-03-25T15:19:36.978Z,43.48
2019-03-25T15:22:07.193Z,48.83
2019-03-25T15:24:37.425Z,46.20
2019-03-25T15:27:07.804Z,44.77
2019-03-25T15:29:38.132Z,46.70
2019-03-25T15:32:08.387Z,43.98
2019-03-25T15:34:38.604Z,44.15
2019-03-25T15:37:08.832Z,46.80
2019-03-25T15:39:46.669Z,46.20
2019-03-25T15:42:11.183Z,46.45
2019-03-25T15:44:41.423Z,45.12
2019-03-25T15:47:11.801Z,48.58
2019-03-25T15:49:41.998Z,55.08
2019-03-25T15:52:12.323Z,44.55
2019-03-25T15:54:42.536Z,45.40
2019-03-25T15:57:12.938Z,50.67
2019-03-25T15:59:43.373Z,52.90
2019-03-25T16:02:13.696Z,41.73
2019-03-25T16:04:43.918Z,41.85
2019-03-25T16:07:14.179Z,36.80
2019-03-25T16:09:44.439Z,45.45
2019-03-25T16:12:14.696Z,36.20
2019-03-25T16:14:45.164Z,35.08
2019-03-25T16:17:15.446Z,42.83
2019-03-25T16:19:45.769Z,33.50
2019-03-25T16:22:16.167Z,32.55
2019-03-25T16:24:46.337Z,27.20
2019-03-25T16:27:16.697Z,34.73
2019-03-25T16:29:46.899Z,38.02
2019-03-25T16:32:17.197Z,37.13
2019-03-25T16:34:47.517Z,30.23
2019-03-25T16:37:17.770Z,34.60
2019-03-25T16:39:47.976Z,33.15
2019-03-25T16:42:18.228Z,35.10
2019-03-25T16:44:48.545Z,32.83
2019-03-25T16:47:18.872Z,31.52
2019-03-25T16:49:49.184Z,45.95
2019-03-25T16:52:19.448Z,41.68
2019-03-25T16:54:49.659Z,43.92
2019-03-25T16:57:19.643Z,41.18
2019-03-25T16:59:49.950Z,40.78
2019-03-25T17:02:20.279Z,37.78
2019-03-25T17:04:50.435Z,35.92
2019-03-25T17:07:20.651Z,35.38
2019-03-25T17:09:50.853Z,44.65
2019-03-25T17:12:21.162Z,30.97
2019-03-25T17:14:51.485Z,35.50
2019-03-25T17:17:21.815Z,33.48
2019-03-25T17:19:52.059Z,36.50
2019-03-25T17:22:22.288Z,31.68
2019-03-25T17:24:52.620Z,34.05
2019-03-25T17:27:22.929Z,35.17
2019-03-25T17:29:53.233Z,31.70
2019-03-25T17:32:23.491Z,33.23
2019-03-25T17:34:53.708Z,33.33
2019-03-25T17:37:23.950Z,30.00
2019-03-25T17:39:54.224Z,34.03
2019-03-25T17:42:24.458Z,31.65
2019-03-25T17:44:54.744Z,33.30
2019-03-25T17:47:24.967Z,39.78
2019-03-25T17:49:55.166Z,35.13
2019-03-25T17:52:25.439Z,30.70
2019-03-25T17:54:55.676Z,29.18
2019-03-25T17:57:26.039Z,33.48
2019-03-25T17:59:56.260Z,26.82
2019-03-25T18:02:26.482Z,31.37
2019-03-25T18:04:56.773Z,34.98
2019-03-25T18:07:27.088Z,32.20
2019-03-25T18:09:57.418Z,26.52
2019-03-25T18:12:38.261Z,31.77
2019-03-25T18:14:59.531Z,25.70
2019-03-25T18:17:29.755Z,31.85
2019-03-25T18:20:00.328Z,28.55
2019-03-25T18:22:39.261Z,33.18
2019-03-25T18:25:02.698Z,30.90
2019-03-25T18:27:32.970Z,27.73
2019-03-25T18:30:03.415Z,24.98
2019-03-25T18:32:33.658Z,27.20
2019-03-25T18:35:03.902Z,35.38
2019-03-25T18:37:34.205Z,32.80
2019-03-25T18:40:04.424Z,28.45
2019-03-25T18:42:34.623Z,23.20
2019-03-25T18:45:05.457Z,28.17
2019-03-25T18:47:35.825Z,24.77
2019-03-25T18:50:06.324Z,23.38
2019-03-25T18:52:36.547Z,24.23
2019-03-25T18:55:06.894Z,24.30
2019-03-25T18:57:37.171Z,22.50
2019-03-25T19:00:07.582Z,23.25
2019-03-25T19:02:37.768Z,25.72
2019-03-25T19:05:07.881Z,24.40
2019-03-25T19:07:38.231Z,27.00
2019-03-25T19:10:08.551Z,21.45
2019-03-25T19:12:38.838Z,25.75
2019-03-25T19:15:09.178Z,22.42
2019-03-25T19:17:39.541Z,22.70
2019-03-25T19:20:09.837Z,24.00
2019-03-25T19:22:40.090Z,19.35
2019-03-25T19:25:10.347Z,23.90
2019-03-25T19:27:40.606Z,20.88
2019-03-25T19:30:13.358Z,23.70
2019-03-25T19:32:43.585Z,21.42
2019-03-25T19:35:13.833Z,21.68
2019-03-25T19:37:44.394Z,24.25
2019-03-25T19:40:14.689Z,22.05
2019-03-25T19:42:45.028Z,24.92
2019-03-25T19:45:15.324Z,24.45
2019-03-25T19:47:45.660Z,24.10
2019-03-25T19:50:15.963Z,27.82
2019-03-25T19:52:46.114Z,25.48
2019-03-25T19:55:16.338Z,23.18
2019-03-25T19:57:46.650Z,22.45
2019-03-25T20:00:18.469Z,29.87
2019-03-25T20:02:49.113Z,19.65
2019-03-25T20:05:19.589Z,19.40
2019-03-25T20:07:50.000Z,22.02
2019-03-25T20:10:33.576Z,21.80
2019-03-25T20:13:03.762Z,20.60
2019-03-25T20:15:45.592Z,20.52
2019-03-25T20:18:06.135Z,19.05
2019-03-25T20:20:36.407Z,20.27
2019-03-25T20:23:06.727Z,19.37
2019-03-25T20:25:36.897Z,20.60
2019-03-25T20:28:07.402Z,21.00
2019-03-25T20:30:37.785Z,20.17
2019-03-25T20:33:08.273Z,25.77
2019-03-25T20:35:38.632Z,25.62
2019-03-25T20:38:08.869Z,21.33
2019-03-25T20:40:39.130Z,20.88
2019-03-25T20:43:09.497Z,23.67
2019-03-25T20:45:39.849Z,31.25
2019-03-25T20:48:10.113Z,34.95
2019-03-25T20:50:40.488Z,23.22
2019-03-25T20:53:10.822Z,24.77
2019-03-25T20:55:41.035Z,26.52
2019-03-25T20:58:11.260Z,18.57
2019-03-25T21:00:51.928Z,17.52
2019-03-25T21:03:22.387Z,20.10
2019-03-25T21:05:52.641Z,16.82
2019-03-25T21:08:22.913Z,20.08
2019-03-25T21:10:53.199Z,21.00
2019-03-25T21:13:23.511Z,21.20
2019-03-25T21:15:53.848Z,21.97
2019-03-25T21:18:24.140Z,24.52
2019-03-25T21:20:54.427Z,19.98
2019-03-25T21:23:24.641Z,23.22
2019-03-25T21:25:54.872Z,19.23
2019-03-25T21:28:25.083Z,19.17
2019-03-25T21:30:55.397Z,20.32
2019-03-25T21:33:25.725Z,16.95
2019-03-25T21:35:55.993Z,17.37
2019-03-25T21:38:26.196Z,15.78
2019-03-25T21:40:56.453Z,17.85
2019-03-25T21:43:26.783Z,19.30
2019-03-25T21:45:57.130Z,18.62
2019-03-25T21:48:27.350Z,20.57
2019-03-25T21:50:57.531Z,17.12
2019-03-25T21:53:27.730Z,18.90
2019-03-25T21:55:58.050Z,14.58
2019-03-25T21:58:28.446Z,15.90
2019-03-25T22:00:58.784Z,19.52
2019-03-25T22:03:29.097Z,16.67
2019-03-25T22:05:59.360Z,17.12
2019-03-25T22:08:29.586Z,18.48
2019-03-25T22:10:59.799Z,14.75
2019-03-25T22:13:30.095Z,16.70
2019-03-25T22:16:00.319Z,16.60
2019-03-25T22:18:30.942Z,17.30
2019-03-25T22:21:01.176Z,16.37
2019-03-25T22:23:31.379Z,17.27
2019-03-25T22:26:01.539Z,14.60
2019-03-25T22:28:31.871Z,16.10
2019-03-25T22:31:02.170Z,16.45
2019-03-25T22:33:32.496Z,13.58
2019-03-25T22:36:02.639Z,18.20
2019-03-25T22:38:32.978Z,16.73
2019-03-25T22:41:03.160Z,14.83
2019-03-25T22:43:33.418Z,16.32
2019-03-25T22:46:03.632Z,14.03
2019-03-25T22:48:33.863Z,14.78
2019-03-25T22:51:04.079Z,13.35
2019-03-25T22:53:34.389Z,15.25
2019-03-25T22:56:04.707Z,12.85
2019-03-25T22:58:35.037Z,14.15
2019-03-25T23:01:05.356Z,14.53
2019-03-25T23:03:39.452Z,11.57
2019-03-25T23:06:07.568Z,12.70
2019-03-25T23:08:37.812Z,14.68
2019-03-25T23:11:08.090Z,13.85
2019-03-25T23:13:38.511Z,13.65
2019-03-25T23:16:08.911Z,13.28
2019-03-25T23:18:39.352Z,14.10
2019-03-25T23:21:09.691Z,14.83
2019-03-25T23:23:40.031Z,14.65
2019-03-25T23:26:10.349Z,12.95
2019-03-25T23:28:40.689Z,11.97
2019-03-25T23:31:11.015Z,13.60
2019-03-25T23:33:51.761Z,12.28
2019-03-25T23:36:13.598Z,13.22
2019-03-25T23:38:43.988Z,15.23
2019-03-25T23:41:14.438Z,13.35
2019-03-25T23:43:44.862Z,12.47
2019-03-25T23:46:15.289Z,11.00
2019-03-25T23:48:45.709Z,13.65
2019-03-25T23:51:16.066Z,13.13
2019-03-25T23:53:46.393Z,14.73
2019-03-25T23:56:18.763Z,11.35
2019-03-25T23:58:48.779Z,13.30
